createdAt,value
2023-02-16T00:00:20.491Z,15.20
2023-02-16T00:02:48.187Z,15.20
2023-02-16T00:05:27.261Z,15.20
2023-02-16T00:07:54.681Z,15.20
2023-02-16T00:10:22.185Z,15.20
2023-02-16T00:13:07.572Z,15.20
2023-02-16T00:15:34.697Z,15.10
2023-02-16T00:18:07.571Z,15.10
2023-02-16T00:20:34.314Z,15.10
2023-02-16T00:23:01.058Z,15.10
2023-02-16T00:25:27.823Z,15.10
2023-02-16T00:27:54.641Z,15.10
2023-02-16T00:30:22.667Z,15.00
2023-02-16T00:32:50.334Z,15.00
2023-02-16T00:35:19.788Z,15.00
2023-02-16T00:37:48.095Z,15.00
2023-02-16T00:40:16.494Z,15.00
2023-02-16T00:42:45.636Z,14.90
2023-02-16T00:45:21.447Z,14.90
2023-02-16T00:47:51.125Z,14.90
2023-02-16T00:50:25.755Z,14.90
2023-02-16T00:52:52.539Z,14.90
2023-02-16T00:55:26.605Z,14.90
2023-02-16T00:58:07.390Z,14.90
2023-02-16T01:00:40.537Z,14.90
2023-02-16T01:03:16.171Z,14.90
2023-02-16T01:05:43.118Z,14.80
2023-02-16T01:08:30.599Z,14.90
2023-02-16T01:11:09.764Z,14.80
2023-02-16T01:13:47.252Z,14.80
2023-02-16T01:16:24.364Z,14.80
2023-02-16T01:18:51.742Z,14.80
2023-02-16T01:21:19.767Z,14.80
2023-02-16T01:23:46.523Z,14.80
2023-02-16T01:26:18.754Z,14.70
2023-02-16T01:28:47.026Z,14.70
2023-02-16T01:31:16.879Z,14.70
2023-02-16T01:33:43.983Z,14.70
2023-02-16T01:36:24.159Z,14.70
2023-02-16T01:38:51.260Z,14.70
2023-02-16T01:41:53.164Z,14.70
2023-02-16T01:44:32.869Z,14.70
2023-02-16T01:47:07.274Z,14.60
2023-02-16T01:49:34.037Z,14.60
2023-02-16T01:52:30.698Z,14.60
2023-02-16T01:55:04.491Z,14.60
2023-02-16T01:57:31.535Z,14.60
2023-02-16T01:59:58.199Z,14.60
2023-02-16T02:02:27.829Z,14.60
2023-02-16T02:05:26.900Z,14.60
2023-02-16T02:08:15.653Z,14.60
2023-02-16T02:11:00.862Z,14.60
2023-02-16T02:13:49.951Z,14.50
2023-02-16T02:16:21.897Z,14.50
2023-02-16T02:18:48.967Z,14.50
2023-02-16T02:21:56.396Z,14.50
2023-02-16T02:24:31.970Z,14.50
2023-02-16T02:27:36.190Z,14.50
2023-02-16T02:30:29.597Z,14.50
2023-02-16T02:33:14.835Z,14.50
2023-02-16T02:35:47.560Z,14.50
2023-02-16T02:38:33.598Z,14.40
2023-02-16T02:41:53.154Z,14.40
2023-02-16T02:44:24.099Z,14.40
2023-02-16T02:46:51.545Z,14.40
2023-02-16T02:49:18.952Z,14.40
2023-02-16T02:51:45.776Z,14.40
2023-02-16T02:54:36.016Z,14.40
2023-02-16T02:57:36.046Z,14.40
2023-02-16T03:00:33.770Z,14.40
2023-02-16T03:03:30.220Z,14.40
2023-02-16T03:06:05.173Z,14.40
2023-02-16T03:08:37.174Z,14.40
2023-02-16T03:11:29.867Z,14.40
2023-02-16T03:14:19.060Z,14.40
2023-02-16T03:17:10.792Z,14.40
2023-02-16T03:19:58.708Z,14.30
2023-02-16T03:22:44.325Z,14.30
2023-02-16T03:25:29.458Z,14.30
2023-02-16T03:28:16.903Z,14.30
2023-02-16T03:30:45.220Z,14.30
2023-02-16T03:33:12.308Z,14.30
2023-02-16T03:35:39.558Z,14.30
2023-02-16T03:38:06.642Z,14.30
2023-02-16T03:40:34.996Z,14.30
2023-02-16T03:43:04.391Z,14.30
2023-02-16T03:45:32.900Z,14.30
2023-02-16T03:47:59.558Z,14.30
2023-02-16T03:50:27.173Z,14.30
2023-02-16T03:53:06.598Z,14.30
2023-02-16T03:55:35.484Z,14.20
2023-02-16T03:58:02.308Z,14.20
2023-02-16T04:00:29.444Z,14.20
2023-02-16T04:02:56.205Z,14.20
2023-02-16T04:05:23.088Z,14.20
2023-02-16T04:07:49.880Z,14.20
2023-02-16T04:10:16.805Z,14.20
2023-02-16T04:12:43.857Z,14.20
2023-02-16T04:15:13.636Z,14.20
2023-02-16T04:17:40.398Z,14.20
2023-02-16T04:20:11.273Z,14.20
2023-02-16T04:22:38.105Z,14.20
2023-02-16T04:25:05.217Z,14.20
2023-02-16T04:27:32.257Z,14.20
2023-02-16T04:29:59.010Z,14.20
2023-02-16T04:32:25.714Z,14.20
2023-02-16T04:34:52.489Z,14.20
2023-02-16T04:37:19.231Z,14.20
2023-02-16T04:39:45.993Z,14.20
2023-02-16T04:42:12.727Z,14.20
2023-02-16T04:44:39.509Z,14.10
2023-02-16T04:47:06.452Z,14.20
2023-02-16T04:49:33.169Z,14.20
2023-02-16T04:52:00.996Z,14.10
2023-02-16T04:54:28.239Z,14.10
2023-02-16T04:56:54.986Z,14.10
2023-02-16T04:59:22.177Z,14.10
2023-02-16T05:01:49.322Z,14.10
2023-02-16T05:04:16.529Z,14.10
2023-02-16T05:06:43.365Z,14.10
2023-02-16T05:09:10.062Z,14.10
2023-02-16T05:11:55.236Z,14.10
2023-02-16T05:14:44.517Z,14.10
2023-02-16T05:17:24.446Z,14.10
2023-02-16T05:19:53.934Z,14.10
2023-02-16T05:22:21.016Z,14.10
2023-02-16T05:24:48.575Z,14.10
2023-02-16T05:27:21.041Z,14.10
2023-02-16T05:29:48.391Z,14.10
2023-02-16T05:32:15.831Z,14.10
2023-02-16T05:34:44.487Z,14.10
2023-02-16T05:37:12.612Z,14.10
2023-02-16T05:39:39.370Z,14.00
2023-02-16T05:42:06.161Z,14.10
2023-02-16T05:44:32.892Z,14.00
2023-02-16T05:46:59.656Z,14.00
2023-02-16T05:49:26.604Z,14.00
2023-02-16T05:51:53.291Z,14.00
2023-02-16T05:54:20.096Z,14.00
2023-02-16T05:56:51.894Z,14.00
2023-02-16T05:59:19.154Z,14.00
2023-02-16T06:01:50.507Z,14.00
2023-02-16T06:04:18.385Z,14.00
2023-02-16T06:06:45.167Z,14.00
2023-02-16T06:09:12.358Z,14.00
2023-02-16T06:11:39.513Z,14.00
2023-02-16T06:14:18.015Z,14.00
2023-02-16T06:16:47.511Z,14.00
2023-02-16T06:19:16.012Z,14.00
2023-02-16T06:21:43.822Z,14.00
2023-02-16T06:24:12.500Z,14.00
2023-02-16T06:26:39.669Z,14.00
2023-02-16T06:29:07.008Z,14.00
2023-02-16T06:31:36.204Z,14.00
2023-02-16T06:34:04.096Z,14.00
2023-02-16T06:36:31.640Z,14.00
2023-02-16T06:38:58.399Z,14.00
2023-02-16T06:41:40.855Z,14.00
2023-02-16T06:44:12.412Z,13.90
2023-02-16T06:46:40.898Z,13.90
2023-02-16T06:49:07.921Z,13.90
2023-02-16T06:51:34.656Z,14.00
2023-02-16T06:54:01.408Z,13.90
2023-02-16T06:56:28.210Z,13.90
2023-02-16T06:58:55.071Z,13.90
2023-02-16T07:01:26.003Z,13.90
2023-02-16T07:03:54.497Z,13.90
2023-02-16T07:06:23.057Z,13.90
2023-02-16T07:08:53.475Z,13.90
2023-02-16T07:11:20.994Z,13.90
2023-02-16T07:13:48.197Z,13.90
2023-02-16T07:16:15.466Z,13.90
2023-02-16T07:18:42.687Z,13.90
2023-02-16T07:21:09.456Z,13.90
2023-02-16T07:23:36.221Z,13.90
2023-02-16T07:26:03.400Z,13.90
2023-02-16T07:28:30.147Z,13.90
2023-02-16T07:30:56.935Z,13.90
2023-02-16T07:33:23.970Z,13.90
2023-02-16T07:35:50.637Z,13.90
2023-02-16T07:38:17.465Z,13.90
2023-02-16T07:40:44.244Z,13.90
2023-02-16T07:43:10.982Z,13.90
2023-02-16T07:45:37.773Z,13.90
2023-02-16T07:51:04.741Z,13.80
2023-02-16T07:53:31.768Z,13.80
2023-02-16T07:55:58.612Z,13.80
2023-02-16T07:58:28.453Z,13.80
2023-02-16T08:01:08.382Z,13.90
2023-02-16T08:03:35.182Z,13.80
2023-02-16T08:06:03.162Z,13.80
2023-02-16T08:08:29.988Z,13.80
2023-02-16T08:10:56.723Z,13.80
2023-02-16T08:13:23.812Z,13.80
2023-02-16T08:15:50.791Z,13.80
2023-02-16T08:18:17.544Z,13.80
2023-02-16T08:21:01.517Z,13.80
2023-02-16T08:23:33.845Z,13.80
2023-02-16T08:26:41.696Z,13.80
2023-02-16T08:29:15.446Z,13.80
2023-02-16T08:31:42.494Z,13.80
2023-02-16T08:34:10.640Z,13.80
2023-02-16T08:36:39.984Z,13.80
2023-02-16T08:39:16.214Z,13.80
2023-02-16T08:41:44.548Z,13.80
2023-02-16T08:44:12.011Z,13.80
2023-02-16T08:46:40.506Z,13.80
2023-02-16T08:49:08.753Z,13.80
2023-02-16T08:51:42.688Z,13.80
2023-02-16T08:54:13.634Z,13.80
2023-02-16T08:56:41.571Z,13.80
2023-02-16T08:59:08.515Z,13.80
2023-02-16T09:01:35.898Z,13.80
2023-02-16T09:04:02.813Z,13.80
2023-02-16T09:06:29.439Z,13.80
2023-02-16T09:08:57.322Z,13.80
2023-02-16T09:11:25.500Z,13.80
2023-02-16T09:13:52.262Z,13.80
2023-02-16T09:16:22.377Z,13.80
2023-02-16T09:18:49.822Z,13.80
2023-02-16T09:21:22.712Z,13.80
2023-02-16T09:23:50.499Z,13.80
2023-02-16T09:26:19.773Z,13.80
2023-02-16T09:28:47.324Z,13.80
2023-02-16T09:31:27.160Z,13.80
2023-02-16T09:33:56.107Z,13.80
2023-02-16T09:36:23.468Z,13.80
2023-02-16T09:38:51.377Z,13.80
2023-02-16T09:41:29.161Z,13.80
2023-02-16T09:44:19.164Z,13.80
2023-02-16T09:46:46.982Z,13.80
2023-02-16T09:49:28.619Z,13.80
2023-02-16T09:52:04.583Z,13.80
2023-02-16T09:54:45.221Z,13.80
2023-02-16T09:57:19.374Z,13.80
2023-02-16T10:00:09.482Z,13.80
2023-02-16T10:02:54.108Z,13.80
2023-02-16T10:05:51.831Z,13.80
2023-02-16T10:08:50.107Z,13.80
2023-02-16T10:11:41.994Z,13.80
2023-02-16T10:14:36.949Z,13.80
2023-02-16T10:17:28.389Z,13.80
2023-02-16T10:20:06.012Z,13.70
2023-02-16T10:22:55.829Z,13.80
2023-02-16T10:25:32.983Z,13.80
2023-02-16T10:28:17.932Z,13.80
2023-02-16T10:30:58.350Z,13.80
2023-02-16T10:33:50.890Z,13.80
2023-02-16T10:36:26.776Z,13.80
2023-02-16T10:39:14.707Z,13.80
2023-02-16T10:41:47.503Z,13.80
2023-02-16T10:44:29.303Z,13.80
2023-02-16T10:47:01.919Z,13.80
2023-02-16T10:49:30.232Z,13.80
2023-02-16T10:51:57.799Z,13.80
2023-02-16T10:54:32.583Z,13.80
2023-02-16T10:57:06.063Z,13.80
2023-02-16T10:59:43.697Z,13.80
2023-02-16T11:02:34.820Z,13.80
2023-02-16T11:05:01.892Z,13.80
2023-02-16T11:07:31.234Z,13.80
2023-02-16T11:10:01.335Z,13.80
2023-02-16T11:12:34.038Z,13.80
2023-02-16T11:15:23.510Z,13.80
2023-02-16T11:18:00.096Z,13.80
2023-02-16T11:20:53.241Z,13.80
2023-02-16T11:23:22.928Z,13.80
2023-02-16T11:26:03.507Z,13.80
2023-02-16T11:28:42.864Z,13.80
2023-02-16T11:31:15.773Z,13.80
2023-02-16T11:33:44.727Z,13.80
2023-02-16T11:36:40.487Z,13.80
2023-02-16T11:39:21.944Z,13.90
2023-02-16T11:41:57.489Z,13.90
2023-02-16T11:44:44.504Z,13.80
2023-02-16T11:47:28.268Z,13.90
2023-02-16T11:50:20.202Z,13.90
2023-02-16T11:52:49.701Z,13.90
2023-02-16T11:55:33.302Z,13.90
2023-02-16T11:58:18.188Z,13.90
2023-02-16T12:01:08.519Z,13.90
2023-02-16T12:03:59.836Z,13.90
2023-02-16T12:06:41.954Z,13.90
2023-02-16T12:09:22.947Z,13.90
2023-02-16T12:12:27.962Z,13.90
2023-02-16T12:15:14.577Z,13.90
2023-02-16T12:17:44.691Z,13.90
2023-02-16T12:20:28.208Z,13.90
2023-02-16T12:23:41.432Z,13.90
2023-02-16T12:26:26.713Z,13.90
2023-02-16T12:29:24.153Z,13.90
2023-02-16T12:32:17.228Z,13.90
2023-02-16T12:34:50.946Z,13.90
2023-02-16T12:37:23.674Z,14.00
2023-02-16T12:39:53.203Z,14.00
2023-02-16T12:42:44.006Z,14.00
2023-02-16T12:45:16.551Z,14.00
2023-02-16T12:47:55.212Z,14.00
2023-02-16T12:50:27.172Z,14.00
2023-02-16T12:53:26.843Z,14.00
2023-02-16T12:55:56.998Z,14.00
2023-02-16T12:58:28.636Z,14.00
2023-02-16T13:01:04.421Z,14.00
2023-02-16T13:03:46.346Z,14.00
2023-02-16T13:06:33.753Z,14.00
2023-02-16T13:09:24.895Z,14.00
2023-02-16T13:11:57.607Z,14.00
2023-02-16T13:14:28.352Z,14.00
2023-02-16T13:17:00.459Z,14.00
2023-02-16T13:19:27.433Z,14.00
2023-02-16T13:21:54.055Z,14.00
2023-02-16T13:24:49.222Z,14.00
2023-02-16T13:27:48.970Z,14.00
2023-02-16T13:30:38.423Z,14.00
2023-02-16T13:33:24.476Z,14.00
2023-02-16T13:36:10.547Z,14.00
2023-02-16T13:39:08.426Z,14.00
2023-02-16T13:42:01.454Z,14.00
2023-02-16T13:44:40.164Z,14.00
2023-02-16T13:47:12.788Z,14.00
2023-02-16T13:49:44.698Z,14.00
2023-02-16T13:52:26.664Z,14.00
2023-02-16T13:54:53.674Z,14.00
2023-02-16T13:57:52.110Z,14.00
2023-02-16T14:00:36.502Z,14.00
2023-02-16T14:03:31.989Z,14.00
2023-02-16T14:06:32.160Z,14.00
2023-02-16T14:09:11.107Z,14.00
2023-02-16T14:11:53.185Z,14.00
2023-02-16T14:14:43.985Z,14.00
2023-02-16T14:17:19.634Z,14.00
2023-02-16T14:20:14.960Z,14.00
2023-02-16T14:22:57.523Z,14.00
2023-02-16T14:25:32.136Z,14.00
2023-02-16T14:28:25.931Z,14.00
2023-02-16T14:31:11.846Z,14.00
2023-02-16T14:33:52.539Z,14.00
2023-02-16T14:36:26.217Z,14.00
2023-02-16T14:38:58.224Z,14.00
2023-02-16T14:41:35.305Z,14.00
2023-02-16T14:44:04.933Z,14.00
2023-02-16T14:47:00.332Z,14.00
2023-02-16T14:49:59.303Z,14.00
2023-02-16T14:52:47.594Z,14.00
2023-02-16T14:55:52.352Z,14.00
2023-02-16T14:58:35.680Z,14.00
2023-02-16T15:01:11.789Z,14.00
2023-02-16T15:03:46.873Z,14.00
2023-02-16T15:06:34.285Z,14.00
2023-02-16T15:09:06.417Z,14.00
2023-02-16T15:11:56.382Z,14.00
2023-02-16T15:14:25.653Z,14.00
2023-02-16T15:16:53.901Z,14.00
2023-02-16T15:19:28.015Z,14.00
2023-02-16T15:22:13.246Z,14.00
2023-02-16T15:24:41.455Z,14.00
2023-02-16T15:27:21.364Z,14.00
2023-02-16T15:30:31.814Z,14.00
2023-02-16T15:33:22.829Z,14.00
2023-02-16T15:35:55.522Z,14.00
2023-02-16T15:38:25.368Z,14.00
2023-02-16T15:40:53.950Z,14.00
2023-02-16T15:43:38.447Z,14.00
2023-02-16T15:46:08.127Z,14.00
2023-02-16T15:48:38.689Z,14.00
2023-02-16T15:51:38.310Z,14.00
2023-02-16T15:54:13.648Z,14.00
2023-02-16T15:56:48.296Z,14.00
2023-02-16T15:59:20.839Z,14.00
2023-02-16T16:01:48.146Z,14.00
2023-02-16T16:04:22.530Z,14.10
2023-02-16T16:06:51.295Z,14.20
2023-02-16T16:09:21.564Z,14.10
2023-02-16T16:11:50.733Z,14.10
2023-02-16T16:14:17.935Z,14.20
2023-02-16T16:16:46.043Z,14.30
2023-02-16T16:19:34.345Z,14.40
2023-02-16T16:22:02.538Z,14.60
2023-02-16T16:24:42.578Z,14.70
2023-02-16T16:27:12.897Z,14.90
2023-02-16T16:29:47.736Z,15.00
2023-02-16T16:32:25.468Z,15.10
2023-02-16T16:34:52.435Z,15.20
2023-02-16T16:37:27.559Z,15.30
2023-02-16T16:40:05.645Z,15.30
2023-02-16T16:42:33.670Z,15.40
2023-02-16T16:45:25.580Z,15.40
2023-02-16T16:47:52.862Z,15.40
2023-02-16T16:50:36.271Z,15.50
2023-02-16T16:53:30.018Z,15.50
2023-02-16T16:55:57.894Z,15.60
2023-02-16T16:58:24.767Z,15.60
2023-02-16T17:00:51.466Z,15.60
2023-02-16T17:03:18.817Z,15.60
2023-02-16T17:05:57.175Z,15.50
2023-02-16T17:08:43.251Z,15.50
2023-02-16T17:11:24.856Z,15.50
2023-02-16T17:13:53.506Z,15.50
2023-02-16T17:16:28.412Z,15.50
2023-02-16T17:18:55.189Z,15.40
2023-02-16T17:21:21.931Z,15.50
2023-02-16T17:23:53.100Z,15.40
2023-02-16T17:26:21.729Z,15.50
2023-02-16T17:28:48.628Z,15.60
2023-02-16T17:31:15.905Z,15.60
2023-02-16T17:33:42.583Z,15.80
2023-02-16T17:36:14.136Z,16.10
2023-02-16T17:38:40.944Z,16.40
2023-02-16T17:41:07.775Z,16.70
2023-02-16T17:43:34.560Z,17.10
2023-02-16T17:46:04.638Z,17.50
2023-02-16T17:48:31.748Z,17.80
2023-02-16T17:50:58.523Z,18.20
2023-02-16T17:53:27.506Z,18.60
2023-02-16T17:55:56.698Z,18.90
2023-02-16T17:58:24.889Z,19.10
2023-02-16T18:00:52.305Z,19.30
2023-02-16T18:03:19.191Z,19.50
2023-02-16T18:05:46.103Z,19.60
2023-02-16T18:08:13.216Z,19.70
2023-02-16T18:10:48.560Z,19.80
2023-02-16T18:13:15.937Z,19.90
2023-02-16T18:15:45.671Z,19.90
2023-02-16T18:18:13.606Z,20.00
2023-02-16T18:20:41.050Z,20.00
2023-02-16T18:23:08.584Z,20.10
2023-02-16T18:25:35.695Z,20.10
2023-02-16T18:28:02.505Z,20.20
2023-02-16T18:30:29.560Z,20.30
2023-02-16T18:32:56.642Z,20.40
2023-02-16T18:35:23.589Z,20.60
2023-02-16T18:37:50.343Z,20.70
2023-02-16T18:40:22.254Z,20.80
2023-02-16T18:42:49.078Z,21.00
2023-02-16T18:45:15.959Z,21.10
2023-02-16T18:47:45.118Z,21.20
2023-02-16T18:50:12.740Z,21.30
2023-02-16T18:52:42.289Z,21.40
2023-02-16T18:55:10.785Z,21.50
2023-02-16T18:57:37.857Z,21.50
2023-02-16T19:00:06.810Z,21.60
2023-02-16T19:02:33.685Z,21.60
2023-02-16T19:05:00.612Z,21.60
2023-02-16T19:07:27.458Z,21.60
2023-02-16T19:09:54.395Z,21.70
2023-02-16T19:12:21.206Z,21.60
2023-02-16T19:14:47.945Z,21.60
2023-02-16T19:17:14.737Z,21.60
2023-02-16T19:19:41.460Z,21.60
2023-02-16T19:22:08.217Z,21.50
2023-02-16T19:24:35.144Z,21.50
2023-02-16T19:27:02.306Z,21.50
2023-02-16T19:29:29.267Z,21.50
2023-02-16T19:31:56.192Z,21.40
2023-02-16T19:34:24.139Z,21.40
2023-02-16T19:36:50.942Z,21.30
2023-02-16T19:39:18.075Z,21.30
2023-02-16T19:41:44.822Z,21.20
2023-02-16T19:44:14.074Z,21.20
2023-02-16T19:46:41.535Z,21.10
2023-02-16T19:49:08.621Z,21.10
2023-02-16T19:51:35.348Z,21.00
2023-02-16T19:54:02.892Z,21.00
2023-02-16T19:56:29.895Z,20.90
2023-02-16T19:58:58.355Z,20.90
2023-02-16T20:01:27.073Z,20.90
2023-02-16T20:03:55.583Z,20.80
2023-02-16T20:06:30.637Z,20.80
2023-02-16T20:08:58.603Z,20.80
2023-02-16T20:11:26.821Z,20.80
2023-02-16T20:13:54.939Z,20.90
2023-02-16T20:16:22.249Z,20.90
2023-02-16T20:18:49.562Z,21.00
2023-02-16T20:21:18.938Z,21.00
2023-02-16T20:23:45.899Z,21.00
2023-02-16T20:26:20.634Z,21.00
2023-02-16T20:28:49.237Z,21.10
2023-02-16T20:31:19.921Z,21.10
2023-02-16T20:33:47.054Z,21.10
2023-02-16T20:36:14.342Z,21.10
2023-02-16T20:38:41.111Z,21.10
2023-02-16T20:41:08.130Z,21.10
2023-02-16T20:43:36.053Z,21.10
2023-02-16T20:46:04.688Z,21.10
2023-02-16T20:48:32.575Z,21.10
2023-02-16T20:51:02.054Z,21.10
2023-02-16T20:53:30.359Z,21.10
2023-02-16T20:56:21.313Z,21.00
2023-02-16T20:58:49.839Z,21.00
2023-02-16T21:01:21.661Z,21.00
2023-02-16T21:03:49.525Z,21.00
2023-02-16T21:06:16.806Z,20.90
2023-02-16T21:08:43.901Z,20.90
2023-02-16T21:11:11.019Z,20.90
2023-02-16T21:13:39.474Z,20.90
2023-02-16T21:16:07.568Z,20.80
2023-02-16T21:18:37.698Z,20.80
2023-02-16T21:21:05.603Z,20.80
2023-02-16T21:23:32.613Z,20.70
2023-02-16T21:26:01.304Z,20.70
2023-02-16T21:28:28.725Z,20.60
2023-02-16T21:30:55.949Z,20.60
2023-02-16T21:33:23.094Z,20.50
2023-02-16T21:35:49.849Z,20.50
2023-02-16T21:38:17.621Z,20.40
2023-02-16T21:41:03.420Z,20.40
2023-02-16T21:43:30.419Z,20.30
2023-02-16T21:46:01.451Z,20.30
2023-02-16T21:48:47.627Z,20.30
2023-02-16T21:51:16.152Z,20.20
2023-02-16T21:53:43.406Z,20.10
2023-02-16T21:56:41.521Z,20.10
2023-02-16T21:59:10.560Z,20.00
2023-02-16T22:01:48.194Z,20.00
2023-02-16T22:04:18.160Z,19.90
2023-02-16T22:06:48.205Z,19.90
2023-02-16T22:09:18.165Z,19.80
2023-02-16T22:11:45.582Z,19.80
2023-02-16T22:14:13.235Z,19.70
2023-02-16T22:16:40.363Z,19.70
2023-02-16T22:19:11.413Z,19.60
2023-02-16T22:21:39.880Z,19.60
2023-02-16T22:24:07.577Z,19.50
2023-02-16T22:26:35.574Z,19.50
2023-02-16T22:29:06.760Z,19.40
2023-02-16T22:31:34.173Z,19.40
2023-02-16T22:34:11.509Z,19.30
2023-02-16T22:36:38.346Z,19.30
2023-02-16T22:39:05.040Z,19.20
2023-02-16T22:41:32.108Z,19.20
2023-02-16T22:44:02.531Z,19.20
2023-02-16T22:46:30.227Z,19.20
2023-02-16T22:48:58.765Z,19.10
2023-02-16T22:51:28.020Z,19.00
2023-02-16T22:53:55.511Z,19.00
2023-02-16T22:56:22.250Z,18.90
2023-02-16T22:58:49.144Z,18.90
2023-02-16T23:01:18.848Z,18.90
2023-02-16T23:03:53.368Z,18.80
2023-02-16T23:06:22.418Z,18.80
2023-02-16T23:08:55.348Z,18.70
2023-02-16T23:11:22.889Z,18.70
2023-02-16T23:13:49.664Z,18.70
2023-02-16T23:16:18.902Z,18.60
2023-02-16T23:18:46.226Z,18.60
2023-02-16T23:21:27.264Z,18.50
2023-02-16T23:23:54.998Z,18.50
2023-02-16T23:26:23.327Z,18.50
2023-02-16T23:28:52.262Z,18.40
2023-02-16T23:31:19.219Z,18.40
2023-02-16T23:33:46.622Z,18.40
2023-02-16T23:36:13.357Z,18.30
2023-02-16T23:38:40.186Z,18.30
2023-02-16T23:41:13.000Z,18.30
2023-02-16T23:43:40.123Z,18.20
2023-02-16T23:46:08.038Z,18.20
2023-02-16T23:48:35.082Z,18.20
2023-02-16T23:51:01.931Z,18.20
2023-02-16T23:53:29.008Z,18.10
2023-02-16T23:56:05.469Z,18.10
2023-02-16T23:58:36.332Z,18.10
